createdAt,value
2019-04-01T00:00:53.229Z,102287.56
2019-04-01T00:03:22.842Z,102288.05
2019-04-01T00:05:52.208Z,102284.15
2019-04-01T00:08:21.952Z,102282.34
2019-04-01T00:10:51.257Z,102280.16
2019-04-01T00:13:20.761Z,102278.82
2019-04-01T00:15:50.411Z,102277.92
2019-04-01T00:18:19.898Z,102278.47
2019-04-01T00:21:08.648Z,102279.42
2019-04-01T00:23:38.078Z,102276.39
2019-04-01T00:26:07.754Z,102274.25
2019-04-01T00:28:37.346Z,102273.87
2019-04-01T00:31:06.802Z,102271.23
2019-04-01T00:33:38.062Z,102278.38
2019-04-01T00:36:07.432Z,102271.81
2019-04-01T00:44:41.846Z,102280.45
2019-04-01T00:47:11.211Z,102269.47
2019-04-01T00:49:40.876Z,102277.09
2019-04-01T00:52:10.219Z,102267.41
2019-04-01T00:54:40.136Z,102271.92
2019-04-01T00:57:09.505Z,102279.53
2019-04-01T00:59:41.210Z,102266.33
2019-04-01T01:02:10.933Z,102266.33
2019-04-01T01:04:40.295Z,102260.67
2019-04-01T01:07:09.949Z,102266.54
2019-04-01T01:12:28.070Z,102263.64
2019-04-01T01:14:57.416Z,102261.94
2019-04-01T01:20:23.132Z,102261.14
2019-04-01T01:22:53.085Z,102251.41
2019-04-01T01:25:22.759Z,102256.81
2019-04-01T01:27:52.461Z,102262.19
2019-04-01T01:30:22.069Z,102256.50
2019-04-01T01:32:53.090Z,102254.36
2019-04-01T01:35:22.429Z,102255.40
2019-04-01T01:37:52.091Z,102266.09
2019-04-01T01:40:21.674Z,102260.48
2019-04-01T01:42:51.288Z,102262.77
2019-04-01T01:45:20.964Z,102253.98
2019-04-01T01:47:50.308Z,102253.56
2019-04-01T01:50:19.672Z,102249.61
2019-04-01T01:52:49.265Z,102249.23
2019-04-01T01:55:38.976Z,102248.84
2019-04-01T01:58:08.339Z,102247.99
2019-04-01T02:03:47.345Z,102235.70
2019-04-01T02:06:16.982Z,102243.33
2019-04-01T02:08:46.629Z,102239.44
2019-04-01T02:11:16.182Z,102242.19
2019-04-01T02:13:45.539Z,102226.28
2019-04-01T02:16:15.024Z,102236.48
2019-04-01T02:18:44.368Z,102239.14
2019-04-01T02:21:19.971Z,102229.88
2019-04-01T02:23:49.626Z,102231.69
2019-04-01T02:26:19.175Z,102231.34
2019-04-01T02:28:48.546Z,102232.72
2019-04-01T02:31:19.532Z,102227.96
2019-04-01T02:33:49.187Z,102227.15
2019-04-01T02:36:18.546Z,102236.49
2019-04-01T02:38:48.152Z,102224.58
2019-04-01T02:41:17.498Z,102232.16
2019-04-01T02:43:47.161Z,102235.28
2019-04-01T02:46:16.508Z,102234.86
2019-04-01T02:48:47.612Z,102229.59
2019-04-01T02:51:17.110Z,102226.98
2019-04-01T02:54:05.930Z,102229.25
2019-04-01T02:56:36.504Z,102228.90
2019-04-01T02:59:06.144Z,102228.91
2019-04-01T03:01:37.428Z,102226.28
2019-04-01T03:04:07.088Z,102216.64
2019-04-01T03:06:36.557Z,102219.80
2019-04-01T03:09:27.053Z,102217.63
2019-04-01T03:11:56.509Z,102218.99
2019-04-01T03:14:27.603Z,102213.25
2019-04-01T03:17:16.900Z,102215.09
2019-04-01T03:20:05.438Z,102212.44
2019-04-01T03:22:34.802Z,102205.88
2019-04-01T03:25:25.201Z,102215.64
2019-04-01T03:27:54.568Z,102213.02
2019-04-01T03:30:24.446Z,102212.16
2019-04-01T03:33:00.657Z,102207.80
2019-04-01T03:35:31.610Z,102207.87
2019-04-01T03:38:03.327Z,102213.64
2019-04-01T03:40:32.697Z,102211.46
2019-04-01T03:43:02.264Z,102204.90
2019-04-01T03:45:31.663Z,102209.78
2019-04-01T03:48:01.304Z,102207.62
2019-04-01T03:50:32.448Z,102210.36
2019-04-01T03:53:01.811Z,102214.48
2019-04-01T03:55:31.262Z,102209.75
2019-04-01T03:58:00.629Z,102214.70
2019-04-01T04:00:30.265Z,102212.08
2019-04-01T04:02:59.615Z,102210.28
2019-04-01T04:05:48.627Z,102212.15
2019-04-01T04:08:37.633Z,102212.15
2019-04-01T04:11:07.274Z,102215.66
2019-04-01T04:13:36.891Z,102208.60
2019-04-01T04:16:06.814Z,102209.93
2019-04-01T04:18:36.758Z,102202.86
2019-04-01T04:21:06.400Z,102211.22
2019-04-01T04:23:36.754Z,102200.14
2019-04-01T04:26:06.501Z,102203.27
2019-04-01T04:28:42.970Z,102198.89
2019-04-01T04:31:32.154Z,102201.08
2019-04-01T04:34:01.530Z,102202.87
2019-04-01T04:39:26.409Z,102207.81
2019-04-01T04:41:56.040Z,102210.06
2019-04-01T04:44:25.849Z,102206.91
2019-04-01T04:46:55.427Z,102206.91
2019-04-01T04:49:25.029Z,102206.91
2019-04-01T04:51:56.316Z,102206.05
2019-04-01T04:54:25.728Z,102210.53
2019-04-01T04:56:55.394Z,102213.67
2019-04-01T04:59:24.766Z,102210.56
2019-04-01T05:01:54.433Z,102205.30
2019-04-01T05:04:23.793Z,102209.23
2019-04-01T05:06:53.452Z,102209.70
2019-04-01T05:10:02.839Z,102209.73
2019-04-01T05:12:32.494Z,102206.22
2019-04-01T05:15:01.841Z,102203.17
2019-04-01T05:17:31.542Z,102211.16
2019-04-01T05:20:00.904Z,102209.03
2019-04-01T05:22:51.370Z,102209.47
2019-04-01T05:25:20.734Z,102212.55
2019-04-01T05:28:09.803Z,102212.09
2019-04-01T05:36:54.246Z,102219.94
2019-04-01T05:39:23.885Z,102219.87
2019-04-01T05:42:12.892Z,102227.30
2019-04-01T05:44:42.592Z,102227.30
2019-04-01T05:47:12.009Z,102229.81
2019-04-01T05:49:42.932Z,102229.25
2019-04-01T05:52:12.546Z,102232.70
2019-04-01T05:54:42.851Z,102232.16
2019-04-01T05:57:12.208Z,102232.02
2019-04-01T05:59:43.368Z,102228.78
2019-04-01T06:02:12.781Z,102230.35
2019-04-01T06:05:23.816Z,102224.89
2019-04-01T06:07:53.452Z,102228.20
2019-04-01T06:10:22.817Z,102232.38
2019-04-01T06:12:52.160Z,102234.77
2019-04-01T06:15:21.735Z,102238.89
2019-04-01T06:17:51.086Z,102238.67
2019-04-01T06:20:20.625Z,102237.12
2019-04-01T06:22:49.980Z,102236.07
2019-04-01T06:25:19.673Z,102231.38
2019-04-01T06:27:49.366Z,102232.48
2019-04-01T06:30:20.625Z,102240.54
2019-04-01T06:32:49.989Z,102234.48
2019-04-01T06:35:19.652Z,102242.05
2019-04-01T06:37:49.023Z,102239.50
2019-04-01T06:40:18.918Z,102240.92
2019-04-01T06:42:48.870Z,102246.84
2019-04-01T06:45:18.219Z,102245.10
2019-04-01T06:47:47.876Z,102239.20
2019-04-01T06:50:17.525Z,102239.20
2019-04-01T06:52:46.879Z,102229.34
2019-04-01T06:55:16.234Z,102241.19
2019-04-01T06:57:45.893Z,102234.17
2019-04-01T07:00:15.567Z,102239.55
2019-04-01T07:02:44.983Z,102233.55
2019-04-01T07:05:14.152Z,102240.31
2019-04-01T07:07:44.547Z,102235.87
2019-04-01T07:10:13.897Z,102235.12
2019-04-01T07:12:43.262Z,102234.41
2019-04-01T07:15:12.911Z,102236.89
2019-04-01T07:17:42.551Z,102229.25
2019-04-01T07:20:11.963Z,102229.00
2019-04-01T07:23:21.662Z,102233.63
2019-04-01T07:26:12.085Z,102232.69
2019-04-01T07:28:41.780Z,102232.08
2019-04-01T07:31:11.215Z,102226.72
2019-04-01T07:33:40.816Z,102224.43
2019-04-01T07:36:10.230Z,102225.77
2019-04-01T07:38:58.886Z,102228.17
2019-04-01T07:41:28.252Z,102228.17
2019-04-01T07:44:10.306Z,102215.71
2019-04-01T07:46:39.973Z,102215.71
2019-04-01T07:49:28.419Z,102223.81
2019-04-01T07:52:17.422Z,102223.66
2019-04-01T07:54:47.153Z,102223.66
2019-04-01T07:57:16.525Z,102222.95
2019-04-01T07:59:46.172Z,102217.70
2019-04-01T08:02:28.465Z,102206.90
2019-04-01T08:05:09.899Z,102212.89
2019-04-01T08:07:39.527Z,102212.89
2019-04-01T08:10:28.550Z,102208.50
2019-04-01T08:12:57.901Z,102208.50
2019-04-01T08:15:27.428Z,102212.83
2019-04-01T08:17:57.050Z,102212.69
2019-04-01T08:20:26.405Z,102212.41
2019-04-01T08:22:57.359Z,102204.95
2019-04-01T08:25:27.023Z,102197.52
2019-04-01T08:27:56.371Z,102202.56
2019-04-01T08:30:25.975Z,102194.41
2019-04-01T08:32:55.400Z,102199.79
2019-04-01T08:35:25.106Z,102196.59
2019-04-01T08:37:54.475Z,102188.90
2019-04-01T08:40:23.964Z,102185.99
2019-04-01T08:42:59.620Z,102183.92
2019-04-01T08:45:29.064Z,102185.19
2019-04-01T08:47:58.437Z,102178.04
2019-04-01T08:50:47.436Z,102178.59
2019-04-01T08:53:57.114Z,102173.47
2019-04-01T08:59:48.596Z,102179.88
2019-04-01T09:02:19.583Z,102177.30
2019-04-01T09:04:49.351Z,102170.23
2019-04-01T09:07:19.008Z,102173.38
2019-04-01T09:12:50.408Z,102161.09
2019-04-01T09:15:20.156Z,102158.92
2019-04-01T09:17:49.824Z,102159.13
2019-04-01T09:20:19.181Z,102158.13
2019-04-01T09:22:48.581Z,102159.78
2019-04-01T09:25:18.206Z,102157.46
2019-04-01T09:27:47.557Z,102146.71
2019-04-01T09:30:18.872Z,102148.19
2019-04-01T09:32:54.073Z,102146.61
2019-04-01T09:35:23.444Z,102143.28
2019-04-01T09:37:53.115Z,102143.38
2019-04-01T09:40:22.467Z,102136.64
2019-04-01T09:42:52.164Z,102134.22
2019-04-01T09:45:21.607Z,102131.53
2019-04-01T09:47:51.251Z,102129.33
2019-04-01T09:53:22.696Z,102112.56
2019-04-01T09:58:33.164Z,102119.50
2019-04-01T10:01:02.780Z,102118.02
2019-04-01T10:03:32.287Z,102111.03
2019-04-01T10:09:15.329Z,102104.97
2019-04-01T10:11:44.685Z,102092.82
2019-04-01T10:14:19.767Z,102089.55
2019-04-01T10:16:49.420Z,102088.98
2019-04-01T10:19:18.835Z,102079.91
2019-04-01T10:21:48.463Z,102074.36
2019-04-01T10:27:32.870Z,102073.69
2019-04-01T10:30:02.346Z,102078.41
2019-04-01T10:32:32.124Z,102063.63
2019-04-01T10:38:18.249Z,102065.75
2019-04-01T10:40:47.606Z,102047.62
2019-04-01T10:43:17.384Z,102050.16
2019-04-01T10:45:46.805Z,102037.52
2019-04-01T10:48:16.418Z,102024.58
2019-04-01T10:50:47.432Z,102024.70
2019-04-01T10:53:16.831Z,102016.31
2019-04-01T10:55:46.534Z,102007.86
2019-04-01T10:58:16.280Z,102013.38
2019-04-01T11:00:45.750Z,102020.98
2019-04-01T11:03:15.396Z,102005.92
2019-04-01T11:06:06.038Z,102000.55
2019-04-01T11:08:35.492Z,102000.55
2019-04-01T11:11:04.826Z,102001.94
2019-04-01T11:13:34.360Z,102001.52
2019-04-01T11:16:03.757Z,102007.15
2019-04-01T11:18:33.401Z,101999.38
2019-04-01T11:21:02.756Z,101994.98
2019-04-01T11:23:33.766Z,101983.64
2019-04-01T11:26:22.615Z,101981.30
2019-04-01T11:28:52.228Z,101985.55
2019-04-01T11:34:10.528Z,101981.53
2019-04-01T11:36:39.868Z,101969.97
2019-04-01T11:42:32.926Z,101971.58
2019-04-01T11:45:05.599Z,101956.44
2019-04-01T11:47:38.962Z,101951.39
2019-04-01T11:53:42.912Z,101962.30
2019-04-01T11:56:12.535Z,101945.27
2019-04-01T11:58:41.884Z,101943.94
2019-04-01T12:01:11.469Z,101946.53
2019-04-01T12:03:40.831Z,101935.72
2019-04-01T12:06:10.503Z,101922.05
2019-04-01T12:08:39.869Z,101931.10
2019-04-01T12:11:09.514Z,101924.45
2019-04-01T12:13:38.877Z,101911.16
2019-04-01T12:16:08.457Z,101910.22
2019-04-01T12:18:37.933Z,101913.86
2019-04-01T12:21:08.267Z,101908.28
2019-04-01T12:23:57.681Z,101904.89
2019-04-01T12:26:27.030Z,101899.09
2019-04-01T12:28:56.665Z,101905.30
2019-04-01T12:31:26.016Z,101891.76
2019-04-01T12:33:55.661Z,101894.79
2019-04-01T12:36:25.036Z,101888.06
2019-04-01T12:38:54.681Z,101883.10
2019-04-01T12:41:24.049Z,101882.20
2019-04-01T12:43:53.709Z,101878.31
2019-04-01T12:46:23.059Z,101877.21
2019-04-01T12:48:52.725Z,101872.38
2019-04-01T12:51:22.855Z,101869.61
2019-04-01T12:53:52.811Z,101856.16
2019-04-01T12:57:02.221Z,101857.34
2019-04-01T12:59:50.979Z,101845.24
2019-04-01T13:02:20.672Z,101841.91
2019-04-01T13:04:51.488Z,101834.35
2019-04-01T13:07:40.164Z,101840.39
2019-04-01T13:10:09.743Z,101825.75
2019-04-01T13:12:39.353Z,101819.00
2019-04-01T13:15:08.793Z,101826.42
2019-04-01T13:20:58.683Z,101805.05
2019-04-01T13:23:28.050Z,101806.75
2019-04-01T13:25:58.031Z,101802.41
2019-04-01T13:28:27.933Z,101799.96
2019-04-01T13:30:57.282Z,101795.63
2019-04-01T13:33:26.758Z,101791.50
2019-04-01T13:35:56.911Z,101787.28
2019-04-01T13:38:26.217Z,101781.22
2019-04-01T13:40:56.212Z,101770.73
2019-04-01T13:43:25.715Z,101776.74
2019-04-01T13:45:55.071Z,101765.07
2019-04-01T13:48:24.740Z,101760.01
2019-04-01T13:50:54.401Z,101755.94
2019-04-01T13:53:23.885Z,101759.14
2019-04-01T13:55:53.236Z,101750.14
2019-04-01T13:58:22.825Z,101748.42
2019-04-01T14:00:52.188Z,101746.58
2019-04-01T14:03:21.861Z,101746.58
2019-04-01T14:05:51.233Z,101747.41
2019-04-01T14:08:22.317Z,101730.25
2019-04-01T14:10:57.905Z,101733.73
2019-04-01T14:13:27.268Z,101728.05
2019-04-01T14:15:56.838Z,101727.79
2019-04-01T14:18:26.188Z,101724.48
2019-04-01T14:20:56.151Z,101723.41
2019-04-01T14:23:25.507Z,101713.80
2019-04-01T14:25:54.999Z,101703.77
2019-04-01T14:28:24.349Z,101705.20
2019-04-01T14:30:54.030Z,101692.67
2019-04-01T14:33:23.396Z,101684.80
2019-04-01T14:35:53.045Z,101682.87
2019-04-01T14:38:22.417Z,101672.69
2019-04-01T14:41:04.200Z,101647.03
2019-04-01T14:43:45.989Z,101647.03
2019-04-01T14:46:16.309Z,101662.76
2019-04-01T14:48:46.144Z,101657.89
2019-04-01T14:51:15.502Z,101656.36
2019-04-01T14:53:45.204Z,101650.31
2019-04-01T14:56:15.119Z,101639.73
2019-04-01T14:58:45.213Z,101639.48
2019-04-01T15:01:14.885Z,101633.56
2019-04-01T15:03:44.246Z,101629.28
2019-04-01T15:06:13.875Z,101631.81
2019-04-01T15:08:43.227Z,101627.13
2019-04-01T15:11:12.888Z,101627.50
2019-04-01T15:17:17.333Z,101611.03
2019-04-01T15:19:53.126Z,101607.44
2019-04-01T15:22:22.864Z,101597.19
2019-04-01T15:25:13.338Z,101600.52
2019-04-01T15:27:42.710Z,101600.52
2019-04-01T15:30:53.726Z,101595.48
2019-04-01T15:33:23.096Z,101590.77
2019-04-01T15:35:52.735Z,101588.66
2019-04-01T15:38:22.516Z,101583.60
2019-04-01T15:41:03.321Z,101579.34
2019-04-01T15:43:32.985Z,101576.59
2019-04-01T15:46:04.185Z,101566.36
2019-04-01T15:48:38.530Z,101565.37
2019-04-01T15:51:20.159Z,101564.34
2019-04-01T15:54:01.266Z,101561.48
2019-04-01T15:56:41.672Z,101557.50
2019-04-01T15:59:15.111Z,101557.50
2019-04-01T16:04:59.132Z,101549.91
2019-04-01T16:07:28.984Z,101539.19
2019-04-01T16:10:18.643Z,101536.73
2019-04-01T16:12:48.499Z,101539.06
2019-04-01T16:15:18.144Z,101535.06
2019-04-01T16:17:47.598Z,101542.28
2019-04-01T16:20:17.144Z,101525.14
2019-04-01T16:22:46.502Z,101532.74
2019-04-01T16:25:16.159Z,101533.97
2019-04-01T16:27:45.519Z,101527.25
2019-04-01T16:30:15.196Z,101524.80
2019-04-01T16:33:15.762Z,101523.16
2019-04-01T16:35:46.796Z,101523.36
2019-04-01T16:38:16.169Z,101520.45
2019-04-01T16:40:45.813Z,101515.17
2019-04-01T16:43:17.094Z,101514.16
2019-04-01T16:46:05.690Z,101520.58
2019-04-01T16:51:14.280Z,101513.48
2019-04-01T16:53:44.541Z,101514.95
2019-04-01T16:56:33.796Z,101509.08
2019-04-01T16:59:03.189Z,101512.73
2019-04-01T17:01:32.541Z,101507.83
2019-04-01T17:04:02.517Z,101503.64
2019-04-01T17:09:27.771Z,101499.69
2019-04-01T17:11:59.043Z,101499.61
2019-04-01T17:14:47.727Z,101493.90
2019-04-01T17:17:17.390Z,101497.50
2019-04-01T17:19:46.758Z,101495.45
2019-04-01T17:22:16.328Z,101494.48
2019-04-01T17:24:46.105Z,101488.48
2019-04-01T17:27:36.149Z,101491.31
2019-04-01T17:30:24.844Z,101495.41
2019-04-01T17:32:54.821Z,101494.29
2019-04-01T17:35:24.478Z,101492.60
2019-04-01T17:37:53.853Z,101490.80
2019-04-01T17:40:23.318Z,101493.30
2019-04-01T17:46:41.816Z,101490.22
2019-04-01T17:52:00.311Z,101480.05
2019-04-01T17:54:29.663Z,101481.81
2019-04-01T17:56:59.325Z,101479.83
2019-04-01T17:59:28.679Z,101479.47
2019-04-01T18:01:58.348Z,101475.92
2019-04-01T18:04:27.687Z,101479.00
2019-04-01T18:09:53.044Z,101471.52
2019-04-01T18:12:23.880Z,101472.11
2019-04-01T18:15:12.776Z,101469.81
2019-04-01T18:17:42.439Z,101459.18
2019-04-01T18:23:13.947Z,101456.97
2019-04-01T18:25:46.606Z,101460.06
2019-04-01T18:28:16.318Z,101461.03
2019-04-01T18:30:45.691Z,101459.97
2019-04-01T18:33:15.166Z,101468.51
2019-04-01T18:35:45.070Z,101469.39
2019-04-01T18:38:21.454Z,101477.25
2019-04-01T18:40:50.803Z,101480.40
2019-04-01T18:43:39.804Z,101477.70
2019-04-01T18:46:09.459Z,101482.80
2019-04-01T18:51:25.523Z,101472.38
2019-04-01T18:53:54.886Z,101480.11
2019-04-01T18:56:24.557Z,101484.81
2019-04-01T18:58:54.430Z,101477.80
2019-04-01T19:01:23.754Z,101477.89
2019-04-01T19:03:53.127Z,101478.23
2019-04-01T19:06:22.555Z,101473.91
2019-04-01T19:08:51.970Z,101472.55
2019-04-01T19:11:21.556Z,101467.28
2019-04-01T19:13:51.229Z,101476.00
2019-04-01T19:16:23.053Z,101469.94
2019-04-01T19:19:11.245Z,101465.03
2019-04-01T19:21:53.157Z,101468.48
2019-04-01T19:24:22.578Z,101461.08
2019-04-01T19:26:52.242Z,101459.32
2019-04-01T19:29:32.003Z,101463.13
2019-04-01T19:32:06.566Z,101460.24
2019-04-01T19:34:44.242Z,101451.96
2019-04-01T19:37:13.767Z,101462.31
2019-04-01T19:39:43.119Z,101453.38
2019-04-01T19:45:07.020Z,101451.02
2019-04-01T19:47:36.671Z,101457.83
2019-04-01T19:50:26.938Z,101455.41
2019-04-01T19:53:08.790Z,101439.82
2019-04-01T19:55:39.061Z,101439.82
2019-04-01T19:58:08.757Z,101439.63
2019-04-01T20:00:38.980Z,101440.18
2019-04-01T20:03:08.637Z,101439.48
2019-04-01T20:05:38.968Z,101429.11
2019-04-01T20:11:22.145Z,101427.08
2019-04-01T20:13:54.724Z,101427.08
2019-04-01T20:16:41.707Z,101412.35
2019-04-01T20:19:11.062Z,101412.35
2019-04-01T20:21:40.731Z,101415.30
2019-04-01T20:24:10.418Z,101406.26
2019-04-01T20:26:40.078Z,101411.32
2019-04-01T20:29:10.979Z,101405.96
2019-04-01T20:32:30.092Z,101397.62
2019-04-01T20:35:00.015Z,101401.80
2019-04-01T20:37:51.736Z,101397.23
2019-04-01T20:40:21.377Z,101393.66
2019-04-01T20:42:50.744Z,101393.82
2019-04-01T20:45:20.092Z,101390.98
2019-04-01T20:47:50.523Z,101386.47
2019-04-01T20:50:40.869Z,101380.22
2019-04-01T20:53:10.239Z,101380.49
2019-04-01T20:55:48.213Z,101375.48
2019-04-01T20:58:30.602Z,101371.31
2019-04-01T21:00:59.961Z,101371.31
2019-04-01T21:03:34.791Z,101366.39
2019-04-01T21:06:04.419Z,101366.39
2019-04-01T21:08:46.305Z,101353.80
2019-04-01T21:11:29.733Z,101352.84
2019-04-01T21:14:03.085Z,101352.84
2019-04-01T21:16:52.065Z,101351.85
2019-04-01T21:19:21.391Z,101342.33
2019-04-01T21:21:52.382Z,101341.05
2019-04-01T21:24:23.346Z,101338.55
2019-04-01T21:26:55.809Z,101330.98
2019-04-01T21:29:44.781Z,101329.43
2019-04-01T21:32:14.144Z,101330.07
2019-04-01T21:34:43.809Z,101333.05
2019-04-01T21:37:13.183Z,101325.30
2019-04-01T21:39:43.099Z,101328.28
2019-04-01T21:45:54.449Z,101315.63
2019-04-01T21:48:43.410Z,101304.79
2019-04-01T21:51:25.087Z,101292.10
2019-04-01T21:53:54.533Z,101292.10
2019-04-01T21:56:23.962Z,101286.75
2019-04-01T21:58:55.298Z,101286.75
2019-04-01T22:01:44.205Z,101288.73
2019-04-01T22:04:15.200Z,101288.73
2019-04-01T22:06:45.141Z,101286.47
2019-04-01T22:09:14.513Z,101277.50
2019-04-01T22:11:44.159Z,101275.45
2019-04-01T22:14:25.732Z,101274.75
2019-04-01T22:16:55.187Z,101274.75
2019-04-01T22:19:24.584Z,101270.83
2019-04-01T22:21:54.227Z,101273.56
2019-04-01T22:24:23.592Z,101269.02
2019-04-01T22:26:53.288Z,101268.38
2019-04-01T22:29:22.947Z,101260.14
2019-04-01T22:31:54.590Z,101263.09
2019-04-01T22:34:24.070Z,101263.05
2019-04-01T22:37:12.842Z,101262.34
2019-04-01T22:42:46.489Z,101251.53
2019-04-01T22:45:16.123Z,101248.64
2019-04-01T22:47:45.843Z,101247.53
2019-04-01T22:50:35.624Z,101244.30
2019-04-01T22:53:05.366Z,101233.20
2019-04-01T23:01:36.951Z,101226.14
2019-04-01T23:04:06.307Z,101227.96
2019-04-01T23:06:35.837Z,101220.88
2019-04-01T23:12:07.118Z,101218.12
2019-04-01T23:14:36.479Z,101202.87
2019-04-01T23:17:07.465Z,101213.38
2019-04-01T23:19:37.068Z,101207.41
2019-04-01T23:22:06.410Z,101209.38
2019-04-01T23:24:36.079Z,101207.95
2019-04-01T23:27:05.444Z,101198.69
2019-04-01T23:29:35.067Z,101199.23
2019-04-01T23:32:16.281Z,101197.05
2019-04-01T23:34:47.356Z,101191.05
2019-04-01T23:37:17.030Z,101188.47
2019-04-01T23:39:48.602Z,101180.98
2019-04-01T23:42:18.252Z,101176.98
2019-04-01T23:44:47.611Z,101178.45
2019-04-01T23:47:17.533Z,101165.28
2019-04-01T23:49:47.199Z,101162.75
2019-04-01T23:52:16.558Z,101163.77
2019-04-01T23:54:46.163Z,101162.58
2019-04-01T23:57:15.507Z,101156.61
2019-04-01T23:59:44.876Z,101153.77
